sensor_id;sensor_type;location;lat;lon;timestamp;pressure;altitude;pressure_sealevel;temperature;humidity
61537;BME280;48695;53.480;-6.300;2023-04-25T00:00:14;101173.28;;;9.74;59.51
61537;BME280;48695;53.480;-6.300;2023-04-25T00:02:40;101247.69;;;10.05;59.36
61537;BME280;48695;53.480;-6.300;2023-04-25T00:05:06;101250.38;;;9.99;59.21
61537;BME280;48695;53.480;-6.300;2023-04-25T00:07:33;101245.22;;;9.93;60.45
61537;BME280;48695;53.480;-6.300;2023-04-25T00:09:59;101252.25;;;9.86;60.60
61537;BME280;48695;53.480;-6.300;2023-04-25T00:12:24;101232.38;;;9.75;60.88
61537;BME280;48695;53.480;-6.300;2023-04-25T00:14:49;101249.66;;;9.85;60.72
61537;BME280;48695;53.480;-6.300;2023-04-25T00:17:15;101260.13;;;9.82;60.86
61537;BME280;48695;53.480;-6.300;2023-04-25T00:19:42;101265.34;;;9.82;61.25
61537;BME280;48695;53.480;-6.300;2023-04-25T00:22:10;101263.63;;;9.79;60.85
61537;BME280;48695;53.480;-6.300;2023-04-25T00:24:35;101265.38;;;9.79;61.33
61537;BME280;48695;53.480;-6.300;2023-04-25T00:27:01;101273.22;;;9.76;61.17
61537;BME280;48695;53.480;-6.300;2023-04-25T00:29:26;101256.75;;;9.74;61.38
61537;BME280;48695;53.480;-6.300;2023-04-25T00:31:52;101259.38;;;9.71;61.24
61537;BME280;48695;53.480;-6.300;2023-04-25T00:34:17;101258.53;;;9.69;60.97
61537;BME280;48695;53.480;-6.300;2023-04-25T00:36:42;101257.66;;;9.67;60.90
61537;BME280;48695;53.480;-6.300;2023-04-25T00:39:08;101252.50;;;9.64;60.94
61537;BME280;48695;53.480;-6.300;2023-04-25T00:41:33;101251.63;;;9.61;60.85
61537;BME280;48695;53.480;-6.300;2023-04-25T00:43:59;101235.31;;;9.44;60.74
61537;BME280;48695;53.480;-6.300;2023-04-25T00:46:25;101260.41;;;9.54;61.14
61537;BME280;48695;53.480;-6.300;2023-04-25T00:48:51;101267.34;;;9.52;60.79
61537;BME280;48695;53.480;-6.300;2023-04-25T00:51:19;101262.19;;;9.49;60.78
61537;BME280;48695;53.480;-6.300;2023-04-25T00:53:45;101257.03;;;9.45;61.27
61537;BME280;48695;53.480;-6.300;2023-04-25T00:56:11;101269.22;;;9.41;61.04
61537;BME280;48695;53.480;-6.300;2023-04-25T00:58:37;101274.47;;;9.38;60.90
61537;BME280;48695;53.480;-6.300;2023-04-25T01:01:03;101269.25;;;9.35;61.04
61537;BME280;48695;53.480;-6.300;2023-04-25T01:03:31;101264.06;;;9.32;60.72
61537;BME280;48695;53.480;-6.300;2023-04-25T01:05:57;101266.72;;;9.27;61.05
61537;BME280;48695;53.480;-6.300;2023-04-25T01:08:24;101267.63;;;9.25;61.34
61537;BME280;48695;53.480;-6.300;2023-04-25T01:10:50;101253.81;;;9.12;61.05
61537;BME280;48695;53.480;-6.300;2023-04-25T01:13:16;101268.53;;;9.16;60.86
61537;BME280;48695;53.480;-6.300;2023-04-25T01:15:41;101280.75;;;9.13;60.83
61537;BME280;48695;53.480;-6.300;2023-04-25T01:18:07;101271.22;;;9.08;61.31
61537;BME280;48695;53.480;-6.300;2023-04-25T01:20:33;101275.59;;;9.05;62.12
61537;BME280;48695;53.480;-6.300;2023-04-25T01:22:58;101272.16;;;9.00;62.15
61537;BME280;48695;53.480;-6.300;2023-04-25T01:25:24;101275.63;;;8.96;62.75
61537;BME280;48695;53.480;-6.300;2023-04-25T01:27:50;101280.03;;;8.92;62.81
61537;BME280;48695;53.480;-6.300;2023-04-25T01:30:16;101271.38;;;8.84;62.99
61537;BME280;48695;53.480;-6.300;2023-04-25T01:32:42;101266.19;;;8.81;63.10
61537;BME280;48695;53.480;-6.300;2023-04-25T01:35:10;101265.38;;;8.77;63.40
61537;BME280;48695;53.480;-6.300;2023-04-25T01:37:42;101267.13;;;8.72;63.09
61537;BME280;48695;53.480;-6.300;2023-04-25T01:40:10;101266.28;;;8.67;63.55
61537;BME280;48695;53.480;-6.300;2023-04-25T01:42:36;101261.97;;;8.63;61.48
61537;BME280;48695;53.480;-6.300;2023-04-25T01:45:03;101253.31;;;8.56;63.18
61537;BME280;48695;53.480;-6.300;2023-04-25T01:47:29;101248.19;;;8.47;63.23
61537;BME280;48695;53.480;-6.300;2023-04-25T01:49:55;101251.66;;;8.45;63.24
61537;BME280;48695;53.480;-6.300;2023-04-25T01:52:20;101249.09;;;8.39;62.96
61537;BME280;48695;53.480;-6.300;2023-04-25T01:54:46;101246.47;;;8.34;63.03
61537;BME280;48695;53.480;-6.300;2023-04-25T01:57:11;101245.63;;;8.29;63.11
61537;BME280;48695;53.480;-6.300;2023-04-25T01:59:37;101226.63;;;8.12;62.88
61537;BME280;48695;53.480;-6.300;2023-04-25T02:02:03;101233.56;;;8.10;62.67
61537;BME280;48695;53.480;-6.300;2023-04-25T02:04:32;101242.25;;;8.12;62.54
61537;BME280;48695;53.480;-6.300;2023-04-25T02:06:58;101258.72;;;8.12;63.03
61537;BME280;48695;53.480;-6.300;2023-04-25T02:09:23;101256.13;;;8.07;63.08
61537;BME280;48695;53.480;-6.300;2023-04-25T02:11:49;101259.59;;;8.03;62.92
61537;BME280;48695;53.480;-6.300;2023-04-25T02:14:15;101263.94;;;8.00;63.04
61537;BME280;48695;53.480;-6.300;2023-04-25T02:16:40;101260.50;;;7.96;62.69
61537;BME280;48695;53.480;-6.300;2023-04-25T02:19:06;101253.56;;;7.92;63.06
61537;BME280;48695;53.480;-6.300;2023-04-25T02:21:31;101261.38;;;7.89;63.05
61537;BME280;48695;53.480;-6.300;2023-04-25T02:23:57;101251.00;;;7.74;63.75
61537;BME280;48695;53.480;-6.300;2023-04-25T02:26:23;101258.78;;;7.80;63.17
61537;BME280;48695;53.480;-6.300;2023-04-25T02:28:49;101244.94;;;7.69;63.69
61537;BME280;48695;53.480;-6.300;2023-04-25T02:31:15;101261.41;;;7.74;63.89
61537;BME280;48695;53.480;-6.300;2023-04-25T02:33:40;101261.44;;;7.71;63.96
61537;BME280;48695;53.480;-6.300;2023-04-25T02:36:06;101269.22;;;7.68;63.85
61537;BME280;48695;53.480;-6.300;2023-04-25T02:38:31;101262.31;;;7.62;63.99
61537;BME280;48695;53.480;-6.300;2023-04-25T02:40:57;101264.03;;;7.60;64.30
61537;BME280;48695;53.480;-6.300;2023-04-25T02:43:22;101264.06;;;7.56;64.63
61537;BME280;48695;53.480;-6.300;2023-04-25T02:45:48;101260.59;;;7.52;64.69
61537;BME280;48695;53.480;-6.300;2023-04-25T02:48:13;101264.91;;;7.48;64.70
61537;BME280;48695;53.480;-6.300;2023-04-25T02:50:38;101264.03;;;7.45;65.12
61537;BME280;48695;53.480;-6.300;2023-04-25T02:53:04;101265.81;;;7.41;65.01
61537;BME280;48695;53.480;-6.300;2023-04-25T02:55:29;101260.59;;;7.37;65.24
61537;BME280;48695;53.480;-6.300;2023-04-25T02:57:55;101254.53;;;7.33;65.10
61537;BME280;48695;53.480;-6.300;2023-04-25T03:00:21;101257.13;;;7.27;65.02
61537;BME280;48695;53.480;-6.300;2023-04-25T03:02:47;101251.94;;;7.25;65.20
61537;BME280;48695;53.480;-6.300;2023-04-25T03:05:12;101254.53;;;7.18;64.92
61537;BME280;48695;53.480;-6.300;2023-04-25T03:07:38;101261.47;;;7.20;64.62
61537;BME280;48695;53.480;-6.300;2023-04-25T03:10:06;101261.47;;;7.16;64.27
61537;BME280;48695;53.480;-6.300;2023-04-25T03:12:31;101258.00;;;7.14;64.30
61537;BME280;48695;53.480;-6.300;2023-04-25T03:14:57;101259.72;;;7.09;64.29
61537;BME280;48695;53.480;-6.300;2023-04-25T03:17:22;101258.00;;;7.08;64.21
61537;BME280;48695;53.480;-6.300;2023-04-25T03:19:47;101258.00;;;7.05;64.62
61537;BME280;48695;53.480;-6.300;2023-04-25T03:22:13;101252.81;;;7.01;64.32
61537;BME280;48695;53.480;-6.300;2023-04-25T03:24:38;101178.31;;;6.53;64.38
61537;BME280;48695;53.480;-6.300;2023-04-25T03:27:04;101247.63;;;6.95;64.39
61537;BME280;48695;53.480;-6.300;2023-04-25T03:29:29;101250.19;;;6.92;64.05
61537;BME280;48695;53.480;-6.300;2023-04-25T03:31:55;101245.84;;;6.88;64.26
61537;BME280;48695;53.480;-6.300;2023-04-25T03:34:20;101257.13;;;6.86;64.08
61537;BME280;48695;53.480;-6.300;2023-04-25T03:36:46;101246.72;;;6.78;63.99
61537;BME280;48695;53.480;-6.300;2023-04-25T03:39:12;101256.22;;;6.79;63.76
61537;BME280;48695;53.480;-6.300;2023-04-25T03:41:37;101259.69;;;6.78;64.50
61537;BME280;48695;53.480;-6.300;2023-04-25T03:44:03;101239.78;;;6.66;64.79
61537;BME280;48695;53.480;-6.300;2023-04-25T03:46:28;101254.50;;;6.72;64.26
61537;BME280;48695;53.480;-6.300;2023-04-25T03:48:54;101256.22;;;6.70;64.56
61537;BME280;48695;53.480;-6.300;2023-04-25T03:51:19;101256.22;;;6.67;64.69
61537;BME280;48695;53.480;-6.300;2023-04-25T03:53:45;101257.06;;;6.63;64.70
61537;BME280;48695;53.480;-6.300;2023-04-25T03:56:10;101245.81;;;6.58;65.21
61537;BME280;48695;53.480;-6.300;2023-04-25T03:58:35;101251.00;;;6.58;64.96
61537;BME280;48695;53.480;-6.300;2023-04-25T04:01:01;101251.84;;;6.57;65.05
61537;BME280;48695;53.480;-6.300;2023-04-25T04:03:32;101250.97;;;6.52;64.79
61537;BME280;48695;53.480;-6.300;2023-04-25T04:05:58;101247.53;;;6.49;64.80
61537;BME280;48695;53.480;-6.300;2023-04-25T04:08:24;101248.38;;;6.47;65.36
61537;BME280;48695;53.480;-6.300;2023-04-25T04:10:49;101250.09;;;6.45;65.42
61537;BME280;48695;53.480;-6.300;2023-04-25T04:13:15;101253.53;;;6.41;65.37
61537;BME280;48695;53.480;-6.300;2023-04-25T04:15:40;101262.19;;;6.40;65.08
61537;BME280;48695;53.480;-6.300;2023-04-25T04:18:06;101250.94;;;6.36;65.11
61537;BME280;48695;53.480;-6.300;2023-04-25T04:20:31;101257.00;;;6.34;65.15
61537;BME280;48695;53.480;-6.300;2023-04-25T04:22:57;101258.69;;;6.32;65.32
61537;BME280;48695;53.480;-6.300;2023-04-25T04:25:22;101253.53;;;6.29;65.10
61537;BME280;48695;53.480;-6.300;2023-04-25T04:27:50;101257.81;;;6.25;65.23
61537;BME280;48695;53.480;-6.300;2023-04-25T04:30:20;101252.59;;;6.22;65.87
61537;BME280;48695;53.480;-6.300;2023-04-25T04:32:46;101261.25;;;6.19;65.60
61537;BME280;48695;53.480;-6.300;2023-04-25T04:35:13;101259.50;;;6.17;65.94
61537;BME280;48695;53.480;-6.300;2023-04-25T04:37:39;101259.50;;;6.14;66.07
61537;BME280;48695;53.480;-6.300;2023-04-25T04:40:05;101257.75;;;6.10;66.39
61537;BME280;48695;53.480;-6.300;2023-04-25T04:42:31;101262.94;;;6.10;66.02
61537;BME280;48695;53.480;-6.300;2023-04-25T04:44:56;101262.03;;;6.08;66.17
61537;BME280;48695;53.480;-6.300;2023-04-25T04:47:23;101256.88;;;6.05;66.15
61537;BME280;48695;53.480;-6.300;2023-04-25T04:49:49;101262.88;;;6.02;66.22
61537;BME280;48695;53.480;-6.300;2023-04-25T04:52:15;101270.66;;;5.99;66.08
61537;BME280;48695;53.480;-6.300;2023-04-25T04:54:40;101270.63;;;5.97;65.81
61537;BME280;48695;53.480;-6.300;2023-04-25T04:57:05;101271.50;;;5.93;65.52
61537;BME280;48695;53.480;-6.300;2023-04-25T04:59:31;101268.03;;;5.91;65.80
61537;BME280;48695;53.480;-6.300;2023-04-25T05:01:56;101276.63;;;5.90;65.57
61537;BME280;48695;53.480;-6.300;2023-04-25T05:04:22;101271.41;;;5.84;65.80
61537;BME280;48695;53.480;-6.300;2023-04-25T05:06:47;101276.59;;;5.84;65.81
61537;BME280;48695;53.480;-6.300;2023-04-25T05:09:12;101272.25;;;5.82;66.10
61537;BME280;48695;53.480;-6.300;2023-04-25T05:11:38;101275.72;;;5.81;65.96
61537;BME280;48695;53.480;-6.300;2023-04-25T05:14:04;101276.56;;;5.78;66.02
61537;BME280;48695;53.480;-6.300;2023-04-25T05:16:29;101277.41;;;5.76;66.09
61537;BME280;48695;53.480;-6.300;2023-04-25T05:18:55;101280.84;;;5.75;66.47
61537;BME280;48695;53.480;-6.300;2023-04-25T05:21:20;101283.44;;;5.73;66.38
61537;BME280;48695;53.480;-6.300;2023-04-25T05:23:45;101290.31;;;5.71;66.67
61537;BME280;48695;53.480;-6.300;2023-04-25T05:26:11;101284.28;;;5.69;66.59
61537;BME280;48695;53.480;-6.300;2023-04-25T05:28:39;101277.38;;;5.68;66.67
61537;BME280;48695;53.480;-6.300;2023-04-25T05:31:06;101287.69;;;5.66;66.60
61537;BME280;48695;53.480;-6.300;2023-04-25T05:33:31;101289.44;;;5.66;66.66
61537;BME280;48695;53.480;-6.300;2023-04-25T05:35:57;101284.25;;;5.64;66.69
61537;BME280;48695;53.480;-6.300;2023-04-25T05:38:22;101285.97;;;5.64;66.62
61537;BME280;48695;53.480;-6.300;2023-04-25T05:40:48;101286.84;;;5.63;66.81
61537;BME280;48695;53.480;-6.300;2023-04-25T05:43:13;101285.06;;;5.62;66.54
61537;BME280;48695;53.480;-6.300;2023-04-25T05:45:38;101293.72;;;5.61;66.85
61537;BME280;48695;53.480;-6.300;2023-04-25T05:48:04;101290.25;;;5.62;66.59
61537;BME280;48695;53.480;-6.300;2023-04-25T05:50:29;101297.16;;;5.60;66.62
61537;BME280;48695;53.480;-6.300;2023-04-25T05:52:55;101280.72;;;5.56;67.15
61537;BME280;48695;53.480;-6.300;2023-04-25T05:55:20;101282.44;;;5.56;67.25
61537;BME280;48695;53.480;-6.300;2023-04-25T05:57:46;101298.88;;;5.61;66.92
61537;BME280;48695;53.480;-6.300;2023-04-25T06:00:14;101287.63;;;5.57;67.25
61537;BME280;48695;53.480;-6.300;2023-04-25T06:02:41;101300.63;;;5.62;67.26
61537;BME280;48695;53.480;-6.300;2023-04-25T06:05:07;101304.94;;;5.61;67.27
61537;BME280;48695;53.480;-6.300;2023-04-25T06:07:32;101304.09;;;5.64;67.34
61537;BME280;48695;53.480;-6.300;2023-04-25T06:09:58;101311.88;;;5.65;67.26
61537;BME280;48695;53.480;-6.300;2023-04-25T06:12:23;101306.72;;;5.68;67.04
61537;BME280;48695;53.480;-6.300;2023-04-25T06:14:49;101309.31;;;5.70;66.87
61537;BME280;48695;53.480;-6.300;2023-04-25T06:17:14;101305.88;;;5.71;67.23
61537;BME280;48695;53.480;-6.300;2023-04-25T06:19:39;101311.94;;;5.76;66.78
61537;BME280;48695;53.480;-6.300;2023-04-25T06:22:05;101306.81;;;5.79;66.95
61537;BME280;48695;53.480;-6.300;2023-04-25T06:24:32;101312.88;;;5.84;67.08
61537;BME280;48695;53.480;-6.300;2023-04-25T06:26:57;101302.50;;;5.87;67.40
61537;BME280;48695;53.480;-6.300;2023-04-25T06:29:23;101303.47;;;5.94;67.36
61537;BME280;48695;53.480;-6.300;2023-04-25T06:31:48;101293.94;;;5.91;67.04
61537;BME280;48695;53.480;-6.300;2023-04-25T06:34:14;101307.81;;;6.01;67.27
61537;BME280;48695;53.480;-6.300;2023-04-25T06:36:40;101308.72;;;6.06;66.96
61537;BME280;48695;53.480;-6.300;2023-04-25T06:39:06;101311.34;;;6.11;67.07
61537;BME280;48695;53.480;-6.300;2023-04-25T06:41:32;101305.28;;;6.12;67.20
61537;BME280;48695;53.480;-6.300;2023-04-25T06:43:57;101306.19;;;6.17;66.91
61537;BME280;48695;53.480;-6.300;2023-04-25T06:46:22;101300.13;;;6.18;67.15
61537;BME280;48695;53.480;-6.300;2023-04-25T06:48:48;101307.97;;;6.26;67.34
61537;BME280;48695;53.480;-6.300;2023-04-25T06:51:13;101301.94;;;6.30;66.84
61537;BME280;48695;53.480;-6.300;2023-04-25T06:53:39;101310.56;;;6.32;66.95
61537;BME280;48695;53.480;-6.300;2023-04-25T06:56:05;101295.88;;;6.29;66.78
61537;BME280;48695;53.480;-6.300;2023-04-25T06:58:31;101309.75;;;6.43;67.01
61537;BME280;48695;53.480;-6.300;2023-04-25T07:00:56;101311.50;;;6.47;67.10
61537;BME280;48695;53.480;-6.300;2023-04-25T07:03:21;101308.06;;;6.52;67.29
61537;BME280;48695;53.480;-6.300;2023-04-25T07:05:47;101299.44;;;6.56;67.24
61537;BME280;48695;53.480;-6.300;2023-04-25T07:08:12;101311.56;;;6.63;67.01
61537;BME280;48695;53.480;-6.300;2023-04-25T07:10:38;101303.78;;;6.67;67.24
61537;BME280;48695;53.480;-6.300;2023-04-25T07:13:04;101301.22;;;6.75;67.18
61537;BME280;48695;53.480;-6.300;2023-04-25T07:15:29;101300.38;;;6.82;67.06
61537;BME280;48695;53.480;-6.300;2023-04-25T07:17:55;101296.06;;;6.87;66.95
61537;BME280;48695;53.480;-6.300;2023-04-25T07:20:20;101294.34;;;6.95;67.05
61537;BME280;48695;53.480;-6.300;2023-04-25T07:22:46;101297.81;;;7.03;67.06
61537;BME280;48695;53.480;-6.300;2023-04-25T07:25:11;101307.34;;;7.11;67.09
61537;BME280;48695;53.480;-6.300;2023-04-25T07:27:37;101304.75;;;7.17;66.64
61537;BME280;48695;53.480;-6.300;2023-04-25T07:30:02;101314.31;;;7.25;66.66
61537;BME280;48695;53.480;-6.300;2023-04-25T07:32:29;101318.63;;;7.31;66.67
61537;BME280;48695;53.480;-6.300;2023-04-25T07:34:55;101314.28;;;7.38;66.66
61537;BME280;48695;53.480;-6.300;2023-04-25T07:37:20;101308.25;;;7.40;66.78
61537;BME280;48695;53.480;-6.300;2023-04-25T07:39:45;101314.28;;;7.50;66.24
61537;BME280;48695;53.480;-6.300;2023-04-25T07:42:12;101320.38;;;7.57;66.36
61537;BME280;48695;53.480;-6.300;2023-04-25T07:44:37;101312.56;;;7.63;66.48
61537;BME280;48695;53.480;-6.300;2023-04-25T07:47:07;101270.97;;;7.44;66.66
61537;BME280;48695;53.480;-6.300;2023-04-25T07:49:34;101316.88;;;7.73;66.33
61537;BME280;48695;53.480;-6.300;2023-04-25T07:52:01;101320.34;;;7.78;66.18
61537;BME280;48695;53.480;-6.300;2023-04-25T07:54:26;101314.25;;;7.84;66.16
61537;BME280;48695;53.480;-6.300;2023-04-25T07:56:52;101315.97;;;7.89;66.15
61537;BME280;48695;53.480;-6.300;2023-04-25T07:59:17;101315.97;;;7.97;66.16
61537;BME280;48695;53.480;-6.300;2023-04-25T08:01:43;101307.31;;;7.96;65.86
61537;BME280;48695;53.480;-6.300;2023-04-25T08:04:08;101320.28;;;8.09;66.15
61537;BME280;48695;53.480;-6.300;2023-04-25T08:06:33;101312.44;;;8.15;66.10
61537;BME280;48695;53.480;-6.300;2023-04-25T08:08:59;101311.56;;;8.19;65.99
61537;BME280;48695;53.480;-6.300;2023-04-25T08:11:25;101318.47;;;8.26;66.27
61537;BME280;48695;53.480;-6.300;2023-04-25T08:13:51;101315.00;;;8.31;66.06
61537;BME280;48695;53.480;-6.300;2023-04-25T08:16:16;101315.88;;;8.38;66.12
61537;BME280;48695;53.480;-6.300;2023-04-25T08:18:41;101319.31;;;8.45;66.08
61537;BME280;48695;53.480;-6.300;2023-04-25T08:21:07;101321.91;;;8.52;66.24
61537;BME280;48695;53.480;-6.300;2023-04-25T08:23:34;101321.00;;;8.58;66.24
61537;BME280;48695;53.480;-6.300;2023-04-25T08:25:59;101320.97;;;8.64;66.21
61537;BME280;48695;53.480;-6.300;2023-04-25T08:28:25;101323.56;;;8.72;66.04
61537;BME280;48695;53.480;-6.300;2023-04-25T08:30:50;101307.06;;;8.65;66.01
61537;BME280;48695;53.480;-6.300;2023-04-25T08:33:16;101322.59;;;8.85;65.94
61537;BME280;48695;53.480;-6.300;2023-04-25T08:35:41;101326.91;;;8.94;66.14
61537;BME280;48695;53.480;-6.300;2023-04-25T08:38:07;101327.69;;;9.02;66.21
61537;BME280;48695;53.480;-6.300;2023-04-25T08:40:35;101330.25;;;9.09;66.03
61537;BME280;48695;53.480;-6.300;2023-04-25T08:43:03;101316.34;;;9.12;66.01
61537;BME280;48695;53.480;-6.300;2023-04-25T08:45:31;101315.41;;;9.21;66.14
61537;BME280;48695;53.480;-6.300;2023-04-25T08:47:57;101326.63;;;9.32;65.87
61537;BME280;48695;53.480;-6.300;2023-04-25T08:50:23;101335.25;;;9.43;66.07
61537;BME280;48695;53.480;-6.300;2023-04-25T08:52:53;101326.44;;;9.56;65.67
61537;BME280;48695;53.480;-6.300;2023-04-25T08:55:20;101323.72;;;9.69;65.96
61537;BME280;48695;53.480;-6.300;2023-04-25T08:57:46;101327.13;;;9.77;65.38
61537;BME280;48695;53.480;-6.300;2023-04-25T09:00:12;101324.41;;;9.87;65.48
61537;BME280;48695;53.480;-6.300;2023-04-25T09:02:42;101329.50;;;9.98;65.47
61537;BME280;48695;53.480;-6.300;2023-04-25T09:05:08;101310.47;;;9.90;65.64
61537;BME280;48695;53.480;-6.300;2023-04-25T09:07:35;101330.16;;;10.20;65.81
61537;BME280;48695;53.480;-6.300;2023-04-25T09:10:00;101316.91;;;10.40;65.97
61537;BME280;48695;53.480;-6.300;2023-04-25T09:12:28;101321.66;;;10.77;65.88
61537;BME280;48695;53.480;-6.300;2023-04-25T09:15:11;101321.03;;;11.20;65.94
61537;BME280;48695;53.480;-6.300;2023-04-25T09:17:36;101331.81;;;11.54;64.71
61537;BME280;48695;53.480;-6.300;2023-04-25T09:20:23;101327.63;;;11.98;63.96
61537;BME280;48695;53.480;-6.300;2023-04-25T09:23:01;101328.03;;;12.21;62.12
61537;BME280;48695;53.480;-6.300;2023-04-25T09:25:27;101321.56;;;12.39;60.83
61537;BME280;48695;53.480;-6.300;2023-04-25T09:28:03;101327.00;;;12.71;61.05
61537;BME280;48695;53.480;-6.300;2023-04-25T09:30:30;101318.63;;;12.94;60.55
61537;BME280;48695;53.480;-6.300;2023-04-25T09:32:57;101324.19;;;13.19;59.87
61537;BME280;48695;53.480;-6.300;2023-04-25T09:35:28;101320.09;;;13.45;60.28
61537;BME280;48695;53.480;-6.300;2023-04-25T09:37:54;101324.63;;;13.72;60.10
61537;BME280;48695;53.480;-6.300;2023-04-25T09:40:19;101316.78;;;14.05;59.54
61537;BME280;48695;53.480;-6.300;2023-04-25T09:42:45;101318.44;;;14.39;59.53
61537;BME280;48695;53.480;-6.300;2023-04-25T09:45:12;101311.59;;;14.64;58.98
61537;BME280;48695;53.480;-6.300;2023-04-25T09:47:40;101320.53;;;14.88;58.75
61537;BME280;48695;53.480;-6.300;2023-04-25T09:50:16;101306.84;;;15.05;58.93
61537;BME280;48695;53.480;-6.300;2023-04-25T09:52:42;101328.19;;;15.24;57.41
61537;BME280;48695;53.480;-6.300;2023-04-25T09:55:08;101331.16;;;15.40;57.09
61537;BME280;48695;53.480;-6.300;2023-04-25T09:57:35;101334.13;;;15.57;56.16
61537;BME280;48695;53.480;-6.300;2023-04-25T10:00:00;101337.47;;;15.62;56.03
61537;BME280;48695;53.480;-6.300;2023-04-25T10:02:29;101335.56;;;15.67;56.54
61537;BME280;48695;53.480;-6.300;2023-04-25T10:04:56;101333.69;;;15.71;56.23
61537;BME280;48695;53.480;-6.300;2023-04-25T10:07:27;101333.34;;;15.81;57.06
61537;BME280;48695;53.480;-6.300;2023-04-25T10:10:04;101328.34;;;15.99;57.23
61537;BME280;48695;53.480;-6.300;2023-04-25T10:12:30;101325.09;;;16.16;56.84
61537;BME280;48695;53.480;-6.300;2023-04-25T10:14:59;101337.13;;;16.48;54.83
61537;BME280;48695;53.480;-6.300;2023-04-25T10:17:26;101327.56;;;16.67;54.65
61537;BME280;48695;53.480;-6.300;2023-04-25T10:19:52;101341.03;;;17.06;57.75
61537;BME280;48695;53.480;-6.300;2023-04-25T10:24:51;101334.66;;;17.12;47.90
61537;BME280;48695;53.480;-6.300;2023-04-25T10:27:17;101325.38;;;17.02;49.96
61537;BME280;48695;53.480;-6.300;2023-04-25T10:29:43;101328.19;;;16.97;49.81
61537;BME280;48695;53.480;-6.300;2023-04-25T10:32:09;101327.41;;;16.95;47.50
61537;BME280;48695;53.480;-6.300;2023-04-25T10:34:39;101330.81;;;16.99;50.22
61537;BME280;48695;53.480;-6.300;2023-04-25T10:37:05;101329.31;;;16.92;46.67
61537;BME280;48695;53.480;-6.300;2023-04-25T10:39:33;101324.34;;;16.84;49.05
61537;BME280;48695;53.480;-6.300;2023-04-25T10:42:01;101323.59;;;16.80;50.60
61537;BME280;48695;53.480;-6.300;2023-04-25T10:44:28;101313.69;;;16.62;50.19
61537;BME280;48695;53.480;-6.300;2023-04-25T10:47:07;101331.84;;;16.71;50.94
61537;BME280;48695;53.480;-6.300;2023-04-25T10:49:37;101320.81;;;16.60;49.83
61537;BME280;48695;53.480;-6.300;2023-04-25T10:52:17;101333.22;;;16.58;51.77
61537;BME280;48695;53.480;-6.300;2023-04-25T10:54:52;101340.53;;;16.50;50.93
61537;BME280;48695;53.480;-6.300;2023-04-25T11:00:06;101337.72;;;16.31;50.06
61537;BME280;48695;53.480;-6.300;2023-04-25T11:02:47;101346.13;;;16.17;48.62
61537;BME280;48695;53.480;-6.300;2023-04-25T11:05:20;101338.78;;;16.02;50.21
61537;BME280;48695;53.480;-6.300;2023-04-25T11:07:52;101335.75;;;15.88;50.00
61537;BME280;48695;53.480;-6.300;2023-04-25T11:10:18;101342.28;;;15.76;48.96
61537;BME280;48695;53.480;-6.300;2023-04-25T11:12:45;101331.22;;;15.66;47.75
61537;BME280;48695;53.480;-6.300;2023-04-25T11:15:11;101335.91;;;15.56;48.89
61537;BME280;48695;53.480;-6.300;2023-04-25T11:17:36;101335.44;;;15.44;48.89
61537;BME280;48695;53.480;-6.300;2023-04-25T11:20:02;101332.28;;;15.32;49.57
61537;BME280;48695;53.480;-6.300;2023-04-25T11:22:33;101338.63;;;15.27;50.01
61537;BME280;48695;53.480;-6.300;2023-04-25T11:25:04;101340.41;;;15.25;49.57
61537;BME280;48695;53.480;-6.300;2023-04-25T11:27:30;101336.34;;;15.16;49.93
61537;BME280;48695;53.480;-6.300;2023-04-25T11:29:55;101331.16;;;15.13;49.06
61537;BME280;48695;53.480;-6.300;2023-04-25T11:32:21;101334.59;;;15.15;49.26
61537;BME280;48695;53.480;-6.300;2023-04-25T11:34:46;101331.06;;;15.16;49.27
61537;BME280;48695;53.480;-6.300;2023-04-25T11:37:12;101327.53;;;15.17;48.61
61537;BME280;48695;53.480;-6.300;2023-04-25T11:39:37;101335.16;;;15.25;49.25
61537;BME280;48695;53.480;-6.300;2023-04-25T11:42:04;101321.91;;;15.28;49.58
61537;BME280;48695;53.480;-6.300;2023-04-25T11:44:30;101328.94;;;15.54;53.43
61537;BME280;48695;53.480;-6.300;2023-04-25T11:46:56;101327.69;;;15.67;48.48
61537;BME280;48695;53.480;-6.300;2023-04-25T11:49:21;101324.25;;;15.90;48.89
61537;BME280;48695;53.480;-6.300;2023-04-25T11:51:48;101303.16;;;16.15;50.16
61537;BME280;48695;53.480;-6.300;2023-04-25T11:54:14;101291.47;;;16.46;50.86
61537;BME280;48695;53.480;-6.300;2023-04-25T11:56:44;101310.03;;;17.11;50.70
61537;BME280;48695;53.480;-6.300;2023-04-25T11:59:10;101302.84;;;17.59;48.15
61537;BME280;48695;53.480;-6.300;2023-04-25T12:01:41;101303.75;;;18.19;48.20
61537;BME280;48695;53.480;-6.300;2023-04-25T12:04:16;101301.25;;;18.74;47.47
61537;BME280;48695;53.480;-6.300;2023-04-25T12:06:44;101292.88;;;19.19;47.45
61537;BME280;48695;53.480;-6.300;2023-04-25T12:09:15;101307.06;;;19.72;43.65
61537;BME280;48695;53.480;-6.300;2023-04-25T12:11:43;101296.25;;;20.10;43.65
61537;BME280;48695;53.480;-6.300;2023-04-25T12:14:10;101303.16;;;20.45;44.05
61537;BME280;48695;53.480;-6.300;2023-04-25T12:16:43;101299.03;;;20.89;44.31
61537;BME280;48695;53.480;-6.300;2023-04-25T12:19:09;101296.97;;;21.10;44.12
61537;BME280;48695;53.480;-6.300;2023-04-25T12:21:35;101303.00;;;21.43;43.05
61537;BME280;48695;53.480;-6.300;2023-04-25T12:24:15;101305.03;;;21.98;45.44
61537;BME280;48695;53.480;-6.300;2023-04-25T12:29:27;101302.03;;;22.33;36.03
61537;BME280;48695;53.480;-6.300;2023-04-25T12:31:53;101304.69;;;22.33;38.83
61537;BME280;48695;53.480;-6.300;2023-04-25T12:34:20;101298.63;;;22.31;39.21
61537;BME280;48695;53.480;-6.300;2023-04-25T12:36:46;101248.44;;;21.96;38.10
61537;BME280;48695;53.480;-6.300;2023-04-25T12:39:19;101294.50;;;22.40;38.96
61537;BME280;48695;53.480;-6.300;2023-04-25T12:41:45;101291.69;;;22.28;38.49
61537;BME280;48695;53.480;-6.300;2023-04-25T12:44:12;101306.50;;;22.47;38.62
61537;BME280;48695;53.480;-6.300;2023-04-25T12:46:37;101298.00;;;22.54;38.23
61537;BME280;48695;53.480;-6.300;2023-04-25T12:49:03;101286.59;;;22.67;38.21
61537;BME280;48695;53.480;-6.300;2023-04-25T12:51:30;101298.16;;;22.80;38.86